createdAt,value
2023-08-10T00:00:26.461Z,11.48
2023-08-10T00:02:53.659Z,11.45
2023-08-10T00:05:20.814Z,11.46
2023-08-10T00:07:47.529Z,11.41
2023-08-10T00:10:14.202Z,11.33
2023-08-10T00:12:40.969Z,11.31
2023-08-10T00:15:08.293Z,11.33
2023-08-10T00:17:35.314Z,11.31
2023-08-10T00:20:02.260Z,11.33
2023-08-10T00:22:29.085Z,11.39
2023-08-10T00:24:55.938Z,11.42
2023-08-10T00:27:23.788Z,11.36
2023-08-10T00:29:50.510Z,11.35
2023-08-10T00:32:17.548Z,11.34
2023-08-10T00:34:44.235Z,11.37
2023-08-10T00:37:10.912Z,11.40
2023-08-10T00:39:38.232Z,11.52
2023-08-10T00:42:05.551Z,11.52
2023-08-10T00:44:32.559Z,11.55
2023-08-10T00:46:59.831Z,11.59
2023-08-10T00:49:27.614Z,11.58
2023-08-10T00:51:54.581Z,11.61
2023-08-10T00:54:21.352Z,11.57
2023-08-10T00:56:48.088Z,11.51
2023-08-10T00:59:14.852Z,11.54
2023-08-10T01:01:41.772Z,11.49
2023-08-10T01:04:08.561Z,11.56
2023-08-10T01:06:50.055Z,11.55
2023-08-10T01:09:45.484Z,11.55
2023-08-10T01:12:18.836Z,11.50
2023-08-10T01:15:04.266Z,11.48
2023-08-10T01:17:38.635Z,11.45
2023-08-10T01:20:09.214Z,11.45
2023-08-10T01:22:51.563Z,11.45
2023-08-10T01:25:21.328Z,11.43
2023-08-10T01:27:48.732Z,11.39
2023-08-10T01:30:16.255Z,11.39
2023-08-10T01:32:43.035Z,11.44
2023-08-10T01:35:11.685Z,11.39
2023-08-10T01:37:38.793Z,11.46
2023-08-10T01:40:09.864Z,11.45
2023-08-10T01:42:36.852Z,11.47
2023-08-10T01:45:06.292Z,11.47
2023-08-10T01:47:37.936Z,11.48
2023-08-10T01:50:08.025Z,11.45
2023-08-10T01:52:47.290Z,11.43
2023-08-10T01:55:15.042Z,11.45
2023-08-10T01:57:41.801Z,11.55
2023-08-10T02:00:09.309Z,11.52
2023-08-10T02:02:36.288Z,11.47
2023-08-10T02:05:03.218Z,11.39
2023-08-10T02:07:29.912Z,11.35
2023-08-10T02:09:56.806Z,11.37
2023-08-10T02:12:24.838Z,11.38
2023-08-10T02:14:52.882Z,11.34
2023-08-10T02:17:19.678Z,11.31
2023-08-10T02:19:46.421Z,11.33
2023-08-10T02:22:13.089Z,11.31
2023-08-10T02:24:39.795Z,11.28
2023-08-10T02:27:06.648Z,11.23
2023-08-10T02:29:33.443Z,11.24
2023-08-10T02:32:02.188Z,11.22
2023-08-10T02:34:29.342Z,11.29
2023-08-10T02:36:56.053Z,11.28
2023-08-10T02:39:22.834Z,11.21
2023-08-10T02:41:49.798Z,11.18
2023-08-10T02:44:16.600Z,11.21
2023-08-10T02:46:43.641Z,11.24
2023-08-10T02:49:10.336Z,11.24
2023-08-10T02:51:37.084Z,11.17
2023-08-10T02:54:03.840Z,11.11
2023-08-10T02:56:30.537Z,11.13
2023-08-10T02:58:57.258Z,11.20
2023-08-10T03:01:23.942Z,11.18
2023-08-10T03:03:50.711Z,11.19
2023-08-10T03:06:17.386Z,11.16
2023-08-10T03:08:44.970Z,11.18
2023-08-10T03:11:11.797Z,11.19
2023-08-10T03:13:38.470Z,11.14
2023-08-10T03:16:05.681Z,11.15
2023-08-10T03:18:32.369Z,11.17
2023-08-10T03:20:59.053Z,11.16
2023-08-10T03:23:25.973Z,11.02
2023-08-10T03:25:52.772Z,11.01
2023-08-10T03:28:19.715Z,11.02
2023-08-10T03:30:46.478Z,11.11
2023-08-10T03:33:13.157Z,11.16
2023-08-10T03:35:39.813Z,11.22
2023-08-10T03:38:06.917Z,11.18
2023-08-10T03:40:33.741Z,11.09
2023-08-10T03:43:00.438Z,11.04
2023-08-10T03:45:27.177Z,11.05
2023-08-10T03:47:53.947Z,11.06
2023-08-10T03:50:21.035Z,11.12
2023-08-10T03:52:47.790Z,11.10
2023-08-10T03:55:15.919Z,11.09
2023-08-10T03:57:43.541Z,11.14
2023-08-10T04:00:11.610Z,11.16
2023-08-10T04:02:38.668Z,11.18
2023-08-10T04:05:07.644Z,11.23
2023-08-10T04:07:34.955Z,11.24
2023-08-10T04:10:02.323Z,11.20
2023-08-10T04:12:29.212Z,11.13
2023-08-10T04:14:55.919Z,11.14
2023-08-10T04:17:22.736Z,11.18
2023-08-10T04:19:49.492Z,11.22
2023-08-10T04:22:16.563Z,11.22
2023-08-10T04:24:43.240Z,11.31
2023-08-10T04:27:09.976Z,11.35
2023-08-10T04:29:36.776Z,11.33
2023-08-10T04:32:03.849Z,11.37
2023-08-10T04:34:30.748Z,11.32
2023-08-10T04:36:57.474Z,11.35
2023-08-10T04:39:24.184Z,11.24
2023-08-10T04:41:50.910Z,11.36
2023-08-10T04:44:17.572Z,11.41
2023-08-10T04:46:44.233Z,11.44
2023-08-10T04:49:11.870Z,11.47
2023-08-10T04:51:38.540Z,11.47
2023-08-10T04:54:05.710Z,11.52
2023-08-10T04:56:32.664Z,11.56
2023-08-10T04:58:59.340Z,11.49
2023-08-10T05:01:26.122Z,11.39
2023-08-10T05:03:52.919Z,11.45
2023-08-10T05:06:19.678Z,11.42
2023-08-10T05:08:46.344Z,11.40
2023-08-10T05:11:13.138Z,11.55
2023-08-10T05:13:39.854Z,11.55
2023-08-10T05:16:06.667Z,11.62
2023-08-10T05:18:35.495Z,11.64
2023-08-10T05:21:04.174Z,11.67
2023-08-10T05:23:30.853Z,11.71
2023-08-10T05:25:58.188Z,11.69
2023-08-10T05:28:24.913Z,11.69
2023-08-10T05:30:51.851Z,11.78
2023-08-10T05:33:18.522Z,11.87
2023-08-10T05:35:45.282Z,11.90
2023-08-10T05:38:12.138Z,11.86
2023-08-10T05:40:38.836Z,11.96
2023-08-10T05:43:06.140Z,12.06
2023-08-10T05:45:32.943Z,12.04
2023-08-10T05:47:59.682Z,12.01
2023-08-10T05:50:26.589Z,12.08
2023-08-10T05:52:53.427Z,12.18
2023-08-10T05:55:20.244Z,12.26
2023-08-10T05:57:46.982Z,12.41
2023-08-10T06:00:15.606Z,12.46
2023-08-10T06:02:42.670Z,12.50
2023-08-10T06:05:10.177Z,12.52
2023-08-10T06:07:38.211Z,12.58
2023-08-10T06:10:05.985Z,12.72
2023-08-10T06:12:33.303Z,12.83
2023-08-10T06:15:00.445Z,12.80
2023-08-10T06:17:27.536Z,12.81
2023-08-10T06:19:57.292Z,12.71
2023-08-10T06:22:25.988Z,12.71
2023-08-10T06:24:52.776Z,12.74
2023-08-10T06:27:19.507Z,12.87
2023-08-10T06:29:46.189Z,13.01
2023-08-10T06:32:13.269Z,12.98
2023-08-10T06:34:39.995Z,12.91
2023-08-10T06:37:06.733Z,12.84
2023-08-10T06:39:33.475Z,12.78
2023-08-10T06:42:00.209Z,12.86
2023-08-10T06:44:26.886Z,12.89
2023-08-10T06:46:53.631Z,13.02
2023-08-10T06:49:22.690Z,13.09
2023-08-10T06:51:50.937Z,13.14
2023-08-10T06:54:17.995Z,13.32
2023-08-10T06:56:44.728Z,13.54
2023-08-10T07:01:41.389Z,13.85
2023-08-10T07:04:09.061Z,14.11
2023-08-10T07:06:36.063Z,14.33
2023-08-10T07:09:03.021Z,14.51
2023-08-10T07:11:29.794Z,14.47
2023-08-10T07:13:56.641Z,14.45
2023-08-10T07:16:23.508Z,14.53
2023-08-10T07:18:50.411Z,14.66
2023-08-10T07:21:17.189Z,14.82
2023-08-10T07:23:43.942Z,14.93
2023-08-10T07:26:11.494Z,14.93
2023-08-10T07:28:38.735Z,14.93
2023-08-10T07:31:05.474Z,14.90
2023-08-10T07:33:32.800Z,14.78
2023-08-10T07:36:00.680Z,14.79
2023-08-10T07:38:30.254Z,15.20
2023-08-10T07:40:57.013Z,15.79
2023-08-10T07:43:23.999Z,16.08
2023-08-10T07:45:50.698Z,16.17
2023-08-10T07:48:17.650Z,16.30
2023-08-10T07:50:44.449Z,16.44
2023-08-10T07:53:11.118Z,16.39
2023-08-10T07:55:38.571Z,16.20
2023-08-10T07:58:05.296Z,16.47
2023-08-10T08:00:31.975Z,16.68
2023-08-10T08:02:58.791Z,17.21
2023-08-10T08:05:25.683Z,17.69
2023-08-10T08:07:52.358Z,18.23
2023-08-10T08:10:19.075Z,18.01
2023-08-10T08:12:45.827Z,17.55
2023-08-10T08:15:12.639Z,17.70
2023-08-10T08:18:17.062Z,17.77
2023-08-10T08:20:44.064Z,17.85
2023-08-10T08:23:14.174Z,18.08
2023-08-10T08:25:41.100Z,17.98
2023-08-10T08:28:08.012Z,18.24
2023-08-10T08:30:34.727Z,18.26
2023-08-10T08:33:01.561Z,18.19
2023-08-10T08:35:28.453Z,18.34
2023-08-10T08:37:55.289Z,18.37
2023-08-10T08:40:22.318Z,18.74
2023-08-10T08:42:50.315Z,19.10
2023-08-10T08:45:17.569Z,19.24
2023-08-10T08:47:45.782Z,19.16
2023-08-10T08:50:12.991Z,19.09
2023-08-10T08:52:41.523Z,19.21
2023-08-10T08:55:08.775Z,19.49
2023-08-10T08:57:35.545Z,19.38
2023-08-10T09:00:02.881Z,19.34
2023-08-10T09:02:29.911Z,19.48
2023-08-10T09:05:00.646Z,19.54
2023-08-10T09:07:31.503Z,19.48
2023-08-10T09:09:59.108Z,19.35
2023-08-10T09:12:41.064Z,19.70
2023-08-10T09:15:12.398Z,19.89
2023-08-10T09:17:44.979Z,19.64
2023-08-10T09:20:18.834Z,19.13
2023-08-10T09:22:46.059Z,18.20
2023-08-10T09:25:12.792Z,17.57
2023-08-10T09:27:39.480Z,17.59
2023-08-10T09:30:08.901Z,17.91
2023-08-10T09:32:36.535Z,17.80
2023-08-10T09:35:05.183Z,17.49
2023-08-10T09:37:31.885Z,17.47
2023-08-10T09:40:07.129Z,17.48
2023-08-10T09:42:35.000Z,17.82
2023-08-10T09:45:07.024Z,17.94
2023-08-10T09:47:41.832Z,17.81
2023-08-10T09:50:15.526Z,17.70
2023-08-10T09:52:43.283Z,17.64
2023-08-10T09:55:14.496Z,17.64
2023-08-10T09:57:46.447Z,17.69
2023-08-10T10:00:19.890Z,17.86
2023-08-10T10:02:47.981Z,18.08
2023-08-10T10:07:49.449Z,18.61
2023-08-10T10:10:17.466Z,18.54
2023-08-10T10:12:49.775Z,18.40
2023-08-10T10:15:17.978Z,18.49
2023-08-10T10:17:44.792Z,18.21
2023-08-10T10:20:12.990Z,18.08
2023-08-10T10:22:40.053Z,18.00
2023-08-10T10:25:14.579Z,17.61
2023-08-10T10:27:41.594Z,17.30
2023-08-10T10:30:19.566Z,17.18
2023-08-10T10:32:48.588Z,17.21
2023-08-10T10:35:25.023Z,17.13
2023-08-10T10:37:57.307Z,17.08
2023-08-10T10:40:25.253Z,17.88
2023-08-10T10:43:08.739Z,18.12
2023-08-10T10:45:38.408Z,18.16
2023-08-10T10:48:08.024Z,18.29
2023-08-10T10:50:36.474Z,18.26
2023-08-10T10:53:08.489Z,18.03
2023-08-10T10:55:35.198Z,18.11
2023-08-10T10:58:07.397Z,18.22
2023-08-10T11:00:36.030Z,18.11
2023-08-10T11:03:05.392Z,17.92
2023-08-10T11:05:32.406Z,17.84
2023-08-10T11:08:04.770Z,17.93
2023-08-10T11:10:36.005Z,17.97
2023-08-10T11:13:10.628Z,18.19
2023-08-10T11:15:40.656Z,18.67
2023-08-10T11:18:12.724Z,18.99
2023-08-10T11:20:46.638Z,18.88
2023-08-10T11:23:14.007Z,18.60
2023-08-10T11:25:51.873Z,18.23
2023-08-10T11:28:22.137Z,18.06
2023-08-10T11:30:49.879Z,18.04
2023-08-10T11:35:51.797Z,17.94
2023-08-10T11:38:18.626Z,17.73
2023-08-10T11:40:45.973Z,17.64
2023-08-10T11:43:21.354Z,17.62
2023-08-10T11:45:49.692Z,17.73
2023-08-10T11:48:19.047Z,17.77
2023-08-10T11:50:46.999Z,17.92
2023-08-10T11:53:20.573Z,18.02
2023-08-10T11:55:52.357Z,18.09
2023-08-10T11:58:20.493Z,18.13
2023-08-10T12:00:52.420Z,18.34
2023-08-10T12:03:26.361Z,18.55
2023-08-10T12:05:56.134Z,18.58
2023-08-10T12:08:32.934Z,18.69
2023-08-10T12:11:01.911Z,18.46
2023-08-10T12:13:29.310Z,18.16
2023-08-10T12:15:57.390Z,18.08
2023-08-10T12:18:25.113Z,18.11
2023-08-10T12:20:53.541Z,18.13
2023-08-10T12:23:21.708Z,18.06
2023-08-10T12:25:50.106Z,18.04
2023-08-10T12:28:18.833Z,18.01
2023-08-10T12:30:46.136Z,18.22
2023-08-10T12:33:13.265Z,18.57
2023-08-10T12:35:40.760Z,18.89
2023-08-10T12:38:08.400Z,19.14
2023-08-10T12:40:35.457Z,19.15
2023-08-10T12:43:02.161Z,19.19
2023-08-10T12:45:28.961Z,19.14
2023-08-10T12:48:00.835Z,19.10
2023-08-10T12:50:28.761Z,19.35
2023-08-10T12:52:56.094Z,19.63
2023-08-10T12:55:23.446Z,19.53
2023-08-10T12:57:50.404Z,19.16
2023-08-10T13:00:19.827Z,18.71
2023-08-10T13:02:47.605Z,18.43
2023-08-10T13:05:15.133Z,18.36
2023-08-10T13:07:43.364Z,18.61
2023-08-10T13:10:13.966Z,18.77
2023-08-10T13:12:43.045Z,18.79
2023-08-10T13:15:10.075Z,18.79
2023-08-10T13:17:37.271Z,18.66
2023-08-10T13:20:04.717Z,18.79
2023-08-10T13:22:34.440Z,18.83
2023-08-10T13:25:02.707Z,18.72
2023-08-10T13:27:29.430Z,18.62
2023-08-10T13:29:56.254Z,18.46
2023-08-10T13:32:24.001Z,18.35
2023-08-10T13:34:51.366Z,18.30
2023-08-10T13:37:19.053Z,18.13
2023-08-10T13:39:45.817Z,18.03
2023-08-10T13:42:12.826Z,18.05
2023-08-10T13:44:39.733Z,17.83
2023-08-10T13:47:06.563Z,17.90
2023-08-10T13:49:45.099Z,18.07
2023-08-10T13:52:20.484Z,18.37
2023-08-10T13:54:47.167Z,18.42
2023-08-10T13:57:14.001Z,18.35
2023-08-10T13:59:41.055Z,18.39
2023-08-10T14:02:09.961Z,18.45
2023-08-10T14:04:37.279Z,18.42
2023-08-10T14:07:05.824Z,18.42
2023-08-10T14:09:35.465Z,18.47
2023-08-10T14:12:02.397Z,18.61
2023-08-10T14:14:31.166Z,18.80
2023-08-10T14:16:58.073Z,18.96
2023-08-10T14:19:25.229Z,19.08
2023-08-10T14:21:52.368Z,19.19
2023-08-10T14:24:19.240Z,19.10
2023-08-10T14:26:45.972Z,19.12
2023-08-10T14:29:12.804Z,19.12
2023-08-10T14:31:40.888Z,19.10
2023-08-10T14:34:07.683Z,19.03
2023-08-10T14:36:34.785Z,19.03
2023-08-10T14:39:01.616Z,19.03
2023-08-10T14:41:28.412Z,19.08
2023-08-10T14:43:55.772Z,19.15
2023-08-10T14:46:23.751Z,19.08
2023-08-10T14:48:52.374Z,19.11
2023-08-10T14:51:19.239Z,19.13
2023-08-10T14:53:46.079Z,19.16
2023-08-10T14:56:13.103Z,19.11
2023-08-10T14:58:39.895Z,18.85
2023-08-10T15:01:06.624Z,18.80
2023-08-10T15:03:33.422Z,18.69
2023-08-10T15:06:08.156Z,18.63
2023-08-10T15:08:36.133Z,18.28
2023-08-10T15:11:07.076Z,18.17
2023-08-10T15:13:35.281Z,18.13
2023-08-10T15:16:02.855Z,18.05
2023-08-10T15:18:30.230Z,17.99
2023-08-10T15:20:57.363Z,17.93
2023-08-10T15:23:40.058Z,18.20
2023-08-10T15:26:09.078Z,18.23
2023-08-10T15:28:38.035Z,18.22
2023-08-10T15:31:07.665Z,18.04
2023-08-10T15:33:34.543Z,17.84
2023-08-10T15:36:01.454Z,17.69
2023-08-10T15:38:28.465Z,17.59
2023-08-10T15:40:56.685Z,17.63
2023-08-10T15:43:23.571Z,17.71
2023-08-10T15:45:51.821Z,17.65
2023-08-10T15:48:19.323Z,17.50
2023-08-10T15:50:46.239Z,17.37
2023-08-10T15:53:12.936Z,17.28
2023-08-10T15:55:39.807Z,17.31
2023-08-10T15:58:06.574Z,17.36
2023-08-10T16:00:34.322Z,17.43
2023-08-10T16:03:01.708Z,17.51
2023-08-10T16:05:28.659Z,17.52
2023-08-10T16:07:55.381Z,17.47
2023-08-10T16:10:22.331Z,17.41
2023-08-10T16:12:49.074Z,17.56
2023-08-10T16:15:15.765Z,17.67
2023-08-10T16:17:42.482Z,17.71
2023-08-10T16:20:11.590Z,17.81
2023-08-10T16:22:39.482Z,17.85
2023-08-10T16:25:06.401Z,17.86
2023-08-10T16:27:33.503Z,17.84
2023-08-10T16:30:00.239Z,17.86
2023-08-10T16:32:27.295Z,17.83
2023-08-10T16:34:54.537Z,17.71
2023-08-10T16:37:21.437Z,17.59
2023-08-10T16:39:48.264Z,17.53
2023-08-10T16:42:15.494Z,17.49
2023-08-10T16:44:42.203Z,17.41
2023-08-10T16:47:09.390Z,17.35
2023-08-10T16:49:36.169Z,17.24
2023-08-10T16:52:02.929Z,17.12
2023-08-10T16:54:29.658Z,17.08
2023-08-10T16:56:57.322Z,17.03
2023-08-10T16:59:24.085Z,16.92
2023-08-10T17:01:50.864Z,16.86
2023-08-10T17:04:18.790Z,16.78
2023-08-10T17:06:45.528Z,16.75
2023-08-10T17:09:12.316Z,16.70
2023-08-10T17:11:39.012Z,16.69
2023-08-10T17:14:05.904Z,16.64
2023-08-10T17:16:33.371Z,16.60
2023-08-10T17:19:00.258Z,16.56
2023-08-10T17:21:27.115Z,16.50
2023-08-10T17:23:53.928Z,16.51
2023-08-10T17:26:20.714Z,16.39
2023-08-10T17:28:47.441Z,16.29
2023-08-10T17:31:15.458Z,16.20
2023-08-10T17:33:42.824Z,16.12
2023-08-10T17:36:09.680Z,16.09
2023-08-10T17:38:36.658Z,16.04
2023-08-10T17:41:03.637Z,15.90
2023-08-10T17:43:33.412Z,15.80
2023-08-10T17:46:00.257Z,15.74
2023-08-10T17:48:26.950Z,15.73
2023-08-10T17:50:53.859Z,15.71
2023-08-10T17:53:20.563Z,15.59
2023-08-10T17:55:48.960Z,15.49
2023-08-10T17:58:15.705Z,15.31
2023-08-10T18:00:45.341Z,15.13
2023-08-10T18:03:12.543Z,15.07
2023-08-10T18:05:39.478Z,15.08
2023-08-10T18:08:06.521Z,15.06
2023-08-10T18:10:33.223Z,14.99
2023-08-10T18:13:00.073Z,14.80
2023-08-10T18:15:26.731Z,14.74
2023-08-10T18:17:53.538Z,14.76
2023-08-10T18:20:22.889Z,14.71
2023-08-10T18:22:50.570Z,14.60
2023-08-10T18:25:17.539Z,14.51
2023-08-10T18:27:44.254Z,14.50
2023-08-10T18:30:13.082Z,14.37
2023-08-10T18:32:41.902Z,14.10
2023-08-10T18:35:09.190Z,13.88
2023-08-10T18:37:35.973Z,13.70
2023-08-10T18:40:04.100Z,13.66
2023-08-10T18:42:30.853Z,13.65
2023-08-10T18:44:57.720Z,13.61
2023-08-10T18:47:24.447Z,13.54
2023-08-10T18:49:54.186Z,13.48
2023-08-10T18:52:22.459Z,13.46
2023-08-10T18:54:49.407Z,13.47
2023-08-10T18:57:16.265Z,13.36
2023-08-10T18:59:42.983Z,13.32
2023-08-10T19:02:09.993Z,13.26
2023-08-10T19:04:36.845Z,13.18
2023-08-10T19:07:03.666Z,13.11
2023-08-10T19:09:30.343Z,13.02
2023-08-10T19:11:57.629Z,12.97
2023-08-10T19:14:25.038Z,12.93
2023-08-10T19:16:52.025Z,12.92
2023-08-10T19:19:18.970Z,12.88
2023-08-10T19:21:47.065Z,12.88
2023-08-10T19:24:13.740Z,12.83
2023-08-10T19:26:40.419Z,12.71
2023-08-10T19:29:07.152Z,12.63
2023-08-10T19:31:33.902Z,12.59
2023-08-10T19:34:00.667Z,12.56
2023-08-10T19:36:27.360Z,12.53
2023-08-10T19:38:54.041Z,12.47
2023-08-10T19:41:20.736Z,12.46
2023-08-10T19:43:47.833Z,12.42
2023-08-10T19:46:14.713Z,12.35
2023-08-10T19:48:41.821Z,12.34
2023-08-10T19:51:08.498Z,12.28
2023-08-10T19:53:35.263Z,12.25
2023-08-10T19:56:02.444Z,12.12
2023-08-10T19:58:29.193Z,12.06
2023-08-10T20:00:56.049Z,12.03
2023-08-10T20:03:26.280Z,12.06
2023-08-10T20:05:53.031Z,12.07
2023-08-10T20:08:20.314Z,12.04
2023-08-10T20:10:47.002Z,11.96
2023-08-10T20:13:14.158Z,11.95
2023-08-10T20:15:41.985Z,11.94
2023-08-10T20:18:09.035Z,11.89
2023-08-10T20:20:36.970Z,11.84
2023-08-10T20:23:04.427Z,11.78
2023-08-10T20:25:31.186Z,11.76
2023-08-10T20:27:58.911Z,11.72
2023-08-10T20:30:25.665Z,11.66
2023-08-10T20:32:52.416Z,11.54
2023-08-10T20:35:19.289Z,11.39
2023-08-10T20:37:46.039Z,11.35
2023-08-10T20:40:13.041Z,11.37
2023-08-10T20:42:39.816Z,11.38
2023-08-10T20:45:07.182Z,11.41
2023-08-10T20:47:35.050Z,11.37
2023-08-10T20:50:06.491Z,11.37
2023-08-10T20:52:33.192Z,11.36
2023-08-10T20:55:00.001Z,11.31
2023-08-10T20:57:26.682Z,11.21
2023-08-10T20:59:53.449Z,11.04
2023-08-10T21:02:20.331Z,10.98
2023-08-10T21:04:47.049Z,11.00
2023-08-10T21:07:14.614Z,11.04
2023-08-10T21:09:41.963Z,11.02
2023-08-10T21:12:10.291Z,11.02
2023-08-10T21:14:36.999Z,10.96
2023-08-10T21:17:05.313Z,10.94
2023-08-10T21:19:33.536Z,11.00
2023-08-10T21:22:00.292Z,11.05
2023-08-10T21:24:27.299Z,11.01
2023-08-10T21:26:54.002Z,11.00
2023-08-10T21:29:20.728Z,10.98
2023-08-10T21:31:47.419Z,10.90
2023-08-10T21:34:14.114Z,10.90
2023-08-10T21:36:42.525Z,10.87
2023-08-10T21:39:09.325Z,10.81
2023-08-10T21:41:36.024Z,10.78
2023-08-10T21:44:02.868Z,10.79
2023-08-10T21:46:29.603Z,10.73
2023-08-10T21:48:56.353Z,10.62
2023-08-10T21:51:23.092Z,10.51
2023-08-10T21:53:49.841Z,10.38
2023-08-10T21:56:16.527Z,10.28
2023-08-10T21:58:43.323Z,10.25
2023-08-10T22:01:10.136Z,10.16
2023-08-10T22:03:39.491Z,10.10
2023-08-10T22:06:06.122Z,10.02
2023-08-10T22:08:32.803Z,9.95
2023-08-10T22:10:59.673Z,9.94
2023-08-10T22:13:26.652Z,9.93
2023-08-10T22:15:53.525Z,9.93
2023-08-10T22:18:20.410Z,9.90
2023-08-10T22:20:47.762Z,9.94
2023-08-10T22:23:14.493Z,9.96
2023-08-10T22:25:41.199Z,9.92
2023-08-10T22:28:08.475Z,9.89
2023-08-10T22:30:36.080Z,9.85
2023-08-10T22:33:03.644Z,9.89
2023-08-10T22:35:30.889Z,9.94
2023-08-10T22:37:57.701Z,9.94
2023-08-10T22:40:24.859Z,9.89
2023-08-10T22:42:51.574Z,9.89
2023-08-10T22:45:18.654Z,9.87
2023-08-10T22:47:45.497Z,9.82
2023-08-10T22:50:14.849Z,9.74
2023-08-10T22:52:45.085Z,9.74
2023-08-10T22:55:12.544Z,9.71
2023-08-10T22:57:40.050Z,9.72
2023-08-10T23:00:07.765Z,9.71
2023-08-10T23:02:34.992Z,9.67
2023-08-10T23:05:02.157Z,9.69
2023-08-10T23:07:28.876Z,9.66
2023-08-10T23:09:56.331Z,9.56
2023-08-10T23:12:27.201Z,9.61
2023-08-10T23:14:54.951Z,9.42
2023-08-10T23:17:22.703Z,9.68
2023-08-10T23:19:49.584Z,9.72
2023-08-10T23:22:17.183Z,9.64
2023-08-10T23:24:44.059Z,9.67
2023-08-10T23:27:10.814Z,9.66
2023-08-10T23:29:38.195Z,9.66
2023-08-10T23:32:05.848Z,9.61
2023-08-10T23:34:33.201Z,9.46
2023-08-10T23:37:00.086Z,9.30
2023-08-10T23:39:26.761Z,9.15
2023-08-10T23:41:53.575Z,8.97
2023-08-10T23:44:20.710Z,8.80
2023-08-10T23:46:47.500Z,8.64
2023-08-10T23:49:14.357Z,8.50
2023-08-10T23:51:41.097Z,8.44
2023-08-10T23:54:07.875Z,8.42
2023-08-10T23:56:34.934Z,8.46
2023-08-10T23:59:03.101Z,8.56
